Donnie Sonier — WDF9285 — position and weather

sailwx.info

Track history (hours):
 
Tides and Currents Weather Stations Pressure Air Temp Water Temp Dewpoint Dewpoint Depression Visibility Wind Speed Wind Dir Waves Ship Positions

Donnie Sonier

Owner: LeBeouf Bros. Towing, LLC, Houma, LA. More information available from US FCC via Universal Licensing System and Coast Guard Vessel Documentation Center.

Last reported at 2015-Aug-28 21:33 UTC. Time now 2015-Sep-03 06:52 UTC.
Position N 29°55' W 090°08'.

Length 22 m.

Type: Tug. MMSI: 367503580.

Date/timePositionNaut miles runAvg speedWind from/ knotsBaromVisibWave heightAir tempDewpointWater temp
2015-Aug-28 21:33N 29°55' W 090°08'1 0.2
2015-Aug-28 16:21N 29°54' W 090°07'4 3.4
2015-Aug-28 15:15N 29°57' W 090°10'0 0.0
2015-Aug-28 13:31N 29°57' W 090°10'0 0.0
2015-Aug-28 10:28N 29°57' W 090°10'0 0.0
2015-Aug-28 08:26N 29°57' W 090°10'4 0.2
2015-Aug-27 08:26N 29°54' W 090°07'0 0.0
2015-Aug-27 07:33N 29°54' W 090°07'0 0.0
2015-Aug-27 06:30N 29°54' W 090°07'0 0.0
2015-Aug-27 05:24N 29°54' W 090°07'0 0.0
2015-Aug-27 04:14N 29°54' W 090°07'0 0.0
2015-Aug-27 03:26N 29°54' W 090°07'0 0.0
2015-Aug-27 02:26N 29°54' W 090°07'0 0.0
2015-Aug-27 01:30N 29°54' W 090°07'2 0.0
2015-Aug-25 16:27N 29°56' W 090°08'2 1.6
2015-Aug-25 15:31N 29°54' W 090°07'0 0.0
2015-Aug-25 14:32N 29°54' W 090°07'0 0.0
2015-Aug-25 13:33N 29°54' W 090°07'0 0.0
2015-Aug-25 12:31N 29°54' W 090°07'0 0.0
2015-Aug-25 11:16N 29°54' W 090°07'0 0.0
2015-Aug-25 10:27N 29°54' W 090°07'0 0.0
2015-Aug-25 09:27N 29°54' W 090°07'0 0.0
2015-Aug-25 07:31N 29°54' W 090°07'0 0.0
2015-Aug-25 05:33N 29°54' W 090°07'0 0.0
2015-Aug-25 04:33N 29°54' W 090°07'0 0.0
2015-Aug-25 03:29N 29°54' W 090°07'0 0.0
2015-Aug-25 02:08N 29°54' W 090°07'0 0.0
2015-Aug-25 01:29N 29°54' W 090°07'1 0.0
2015-Aug-23 21:09N 29°54' W 090°07'0 0.6
2015-Aug-23 20:30N 29°54' W 090°07'0 0.2
2015-Aug-23 19:29N 29°54' W 090°07'0 0.0
2015-Aug-23 18:24N 29°54' W 090°07'0 0.0
2015-Aug-23 17:32N 29°54' W 090°07'0 0.0
2015-Aug-23 16:33N 29°54' W 090°07'0 0.1
2015-Aug-23 15:33N 29°54' W 090°07'0 0.1
2015-Aug-23 14:29N 29°54' W 090°07'0 0.0
2015-Aug-23 11:27N 29°54' W 090°07'0 0.0
2015-Aug-22 18:30N 29°54' W 090°07'30 0.8
2015-Aug-21 03:03N 29°34' W 090°32'3 4.7
2015-Aug-21 02:20N 29°35' W 090°35'3 3.3
2015-Aug-21 01:33N 29°35' W 090°38'3 3.2
2015-Aug-21 00:33N 29°37' W 090°42'3 3.1
2015-Aug-20 23:34N 29°34' W 090°43'4 4.1
2015-Aug-20 22:34N 29°32' W 090°48'  
Track history (hours):
 
Tides and Currents Weather Stations Pressure Air Temp Water Temp Dewpoint Dewpoint Depression Visibility Wind Speed Wind Dir Waves Ship Positions

Donnie Sonier

Owner: LeBeouf Bros. Towing, LLC, Houma, LA. More information available from US FCC via Universal Licensing System and Coast Guard Vessel Documentation Center.

Last reported at 2015-Aug-28 21:33 UTC. Time now 2015-Sep-03 06:52 UTC.
Position N 29°55' W 090°08'.

Length 22 m.

Type: Tug. MMSI: 367503580.

Date/timePositionNaut miles runAvg speedWind from/ knotsBaromVisibWave heightAir tempDewpointWater temp
2015-Aug-28 21:33N 29°55' W 090°08'1 0.2
2015-Aug-28 16:21N 29°54' W 090°07'4 3.4
2015-Aug-28 15:15N 29°57' W 090°10'0 0.0
2015-Aug-28 13:31N 29°57' W 090°10'0 0.0
2015-Aug-28 10:28N 29°57' W 090°10'0 0.0
2015-Aug-28 08:26N 29°57' W 090°10'4 0.2
2015-Aug-27 08:26N 29°54' W 090°07'0 0.0
2015-Aug-27 07:33N 29°54' W 090°07'0 0.0
2015-Aug-27 06:30N 29°54' W 090°07'0 0.0
2015-Aug-27 05:24N 29°54' W 090°07'0 0.0
2015-Aug-27 04:14N 29°54' W 090°07'0 0.0
2015-Aug-27 03:26N 29°54' W 090°07'0 0.0
2015-Aug-27 02:26N 29°54' W 090°07'0 0.0
2015-Aug-27 01:30N 29°54' W 090°07'2 0.0
2015-Aug-25 16:27N 29°56' W 090°08'2 1.6
2015-Aug-25 15:31N 29°54' W 090°07'0 0.0
2015-Aug-25 14:32N 29°54' W 090°07'0 0.0
2015-Aug-25 13:33N 29°54' W 090°07'0 0.0
2015-Aug-25 12:31N 29°54' W 090°07'0 0.0
2015-Aug-25 11:16N 29°54' W 090°07'0 0.0
2015-Aug-25 10:27N 29°54' W 090°07'0 0.0
2015-Aug-25 09:27N 29°54' W 090°07'0 0.0
2015-Aug-25 07:31N 29°54' W 090°07'0 0.0
2015-Aug-25 05:33N 29°54' W 090°07'0 0.0
2015-Aug-25 04:33N 29°54' W 090°07'0 0.0
2015-Aug-25 03:29N 29°54' W 090°07'0 0.0
2015-Aug-25 02:08N 29°54' W 090°07'0 0.0
2015-Aug-25 01:29N 29°54' W 090°07'1 0.0
2015-Aug-23 21:09N 29°54' W 090°07'0 0.6
2015-Aug-23 20:30N 29°54' W 090°07'0 0.2
2015-Aug-23 19:29N 29°54' W 090°07'0 0.0
2015-Aug-23 18:24N 29°54' W 090°07'0 0.0
2015-Aug-23 17:32N 29°54' W 090°07'0 0.0
2015-Aug-23 16:33N 29°54' W 090°07'0 0.1
2015-Aug-23 15:33N 29°54' W 090°07'0 0.1
2015-Aug-23 14:29N 29°54' W 090°07'0 0.0
2015-Aug-23 11:27N 29°54' W 090°07'0 0.0
2015-Aug-22 18:30N 29°54' W 090°07'30 0.8
2015-Aug-21 03:03N 29°34' W 090°32'3 4.7
2015-Aug-21 02:20N 29°35' W 090°35'3 3.3
2015-Aug-21 01:33N 29°35' W 090°38'3 3.2
2015-Aug-21 00:33N 29°37' W 090°42'3 3.1
2015-Aug-20 23:34N 29°34' W 090°43'4 4.1
2015-Aug-20 22:34N 29°32' W 090°48'  

Dump ship's entire track history